Search for airport 
image banner adimage banner ad
image banner ad

DABB - Annaba / Rabah Bitat

Located in Annaba, Algeria

ICAO - DABB, IATA - AAE

Data provided by Airmate  

General information

Coordinates: N36°49'20" E7°48'34"
Elevation is 16 feet MSL.
 
Rated:
View ratings: [VIEW]


View others Airports in El Tarf Province

Operational data

Open for public use
Current time UTC:
Current local time:
Weather
METAR: DABB 122300Z 22003KT CAVOK 25/22 Q1012
TAF: TAF DABB 121700Z 1218/1318 35010KT 9999 FEW023 BECMG 1219/1221 16006KT BECMG 1306/1308 34008KT
View NOTAMs / SUP AIP / TFR affecting this airport [VIEW]
Communications frequencies: [VIEW]

Runways:

RWY identifierQFULength (ft)Width (ft)SurfaceLDA (ft)
0552°7513148
23232°7513148
18186°9843148
369843148

Airport contact information

Address: Annaba Algeria

Satellite view of DABB